createdAt,value
2017-11-28T00:00:31.660Z,5.58
2017-11-28T00:01:32.257Z,5.58
2017-11-28T00:02:32.853Z,5.65
2017-11-28T00:03:33.454Z,5.61
2017-11-28T00:04:34.062Z,5.58
2017-11-28T00:05:34.664Z,5.65
2017-11-28T00:06:35.265Z,5.68
2017-11-28T00:07:35.871Z,5.68
2017-11-28T00:08:36.469Z,5.66
2017-11-28T00:09:37.089Z,5.68
2017-11-28T00:10:37.689Z,5.68
2017-11-28T00:11:38.297Z,5.66
2017-11-28T00:12:38.892Z,5.61
2017-11-28T00:13:39.496Z,5.65
2017-11-28T00:14:40.102Z,5.61
2017-11-28T00:15:40.702Z,5.65
2017-11-28T00:16:41.332Z,5.65
2017-11-28T00:17:41.918Z,5.69
2017-11-28T00:18:42.517Z,5.66
2017-11-28T00:19:43.117Z,5.69
2017-11-28T00:20:43.721Z,5.66
2017-11-28T00:21:44.316Z,5.66
2017-11-28T00:22:44.928Z,5.73
2017-11-28T00:23:45.533Z,5.69
2017-11-28T00:24:46.127Z,5.66
2017-11-28T00:25:46.737Z,5.78
2017-11-28T00:26:47.331Z,5.72
2017-11-28T00:27:47.929Z,5.70
2017-11-28T00:28:48.530Z,5.68
2017-11-28T00:29:49.120Z,5.73
2017-11-28T00:30:49.711Z,5.69
2017-11-28T00:31:50.310Z,5.73
2017-11-28T00:32:50.909Z,5.68
2017-11-28T00:33:51.516Z,5.75
2017-11-28T00:34:52.127Z,5.70
2017-11-28T00:35:52.719Z,5.75
2017-11-28T00:36:53.332Z,5.76
2017-11-28T00:37:53.942Z,5.78
2017-11-28T00:38:54.557Z,5.73
2017-11-28T00:39:55.163Z,5.78
2017-11-28T00:40:55.773Z,5.83
2017-11-28T00:41:56.367Z,5.76
2017-11-28T00:42:56.965Z,5.79
2017-11-28T00:43:57.565Z,5.78
2017-11-28T00:44:58.169Z,5.76
2017-11-28T00:45:58.761Z,5.79
2017-11-28T00:46:59.366Z,5.81
2017-11-28T00:47:59.969Z,5.81
2017-11-28T00:49:00.571Z,5.86
2017-11-28T00:50:01.167Z,5.81
2017-11-28T00:51:01.766Z,5.84
2017-11-28T00:52:02.382Z,5.90
2017-11-28T00:53:02.996Z,5.86
2017-11-28T00:54:03.604Z,5.88
2017-11-28T00:55:04.216Z,5.87
2017-11-28T00:56:04.808Z,5.81
2017-11-28T00:57:05.409Z,5.86
2017-11-28T00:58:06.007Z,5.81
2017-11-28T00:59:06.612Z,5.76
2017-11-28T01:00:07.224Z,5.79
2017-11-28T01:01:07.845Z,5.78
2017-11-28T01:02:08.448Z,5.81
2017-11-28T01:03:09.050Z,5.72
2017-11-28T01:04:09.638Z,5.81
2017-11-28T01:05:10.246Z,5.76
2017-11-28T01:06:10.863Z,5.68
2017-11-28T01:07:11.466Z,5.72
2017-11-28T01:08:12.067Z,5.68
2017-11-28T01:09:12.673Z,5.70
2017-11-28T01:10:13.279Z,5.68
2017-11-28T01:11:13.873Z,5.68
2017-11-28T01:12:14.486Z,5.69
2017-11-28T01:13:15.097Z,5.68
2017-11-28T01:14:15.704Z,5.70
2017-11-28T01:15:16.305Z,5.69
2017-11-28T01:16:16.901Z,5.73
2017-11-28T01:17:17.491Z,5.69
2017-11-28T01:18:18.093Z,5.58
2017-11-28T01:19:18.706Z,5.65
2017-11-28T01:20:19.312Z,5.61
2017-11-28T01:21:19.907Z,5.65
2017-11-28T01:22:20.503Z,5.60
2017-11-28T01:23:21.123Z,5.60
2017-11-28T01:24:21.724Z,5.68
2017-11-28T01:25:22.314Z,5.66
2017-11-28T01:26:22.929Z,5.69
2017-11-28T01:27:23.533Z,5.58
2017-11-28T01:28:24.132Z,5.65
2017-11-28T01:29:24.738Z,5.63
2017-11-28T01:30:25.340Z,5.66
2017-11-28T01:31:25.949Z,5.60
2017-11-28T01:32:26.530Z,5.63
2017-11-28T01:33:27.117Z,5.63
2017-11-28T01:34:27.728Z,5.66
2017-11-28T01:35:28.324Z,5.69
2017-11-28T01:36:28.935Z,5.70
2017-11-28T01:37:29.523Z,5.69
2017-11-28T01:38:30.113Z,5.73
2017-11-28T01:39:30.698Z,5.72
2017-11-28T01:40:31.289Z,5.68
2017-11-28T01:41:31.895Z,5.70
2017-11-28T01:42:32.506Z,5.66
2017-11-28T01:43:33.113Z,5.78
2017-11-28T01:44:33.725Z,5.76
2017-11-28T01:45:34.333Z,5.72
2017-11-28T01:46:34.924Z,5.81
2017-11-28T01:47:35.517Z,5.78
2017-11-28T01:48:36.120Z,5.81
2017-11-28T01:49:36.711Z,5.81
2017-11-28T01:50:37.315Z,5.78
2017-11-28T01:51:37.927Z,5.81
2017-11-28T01:52:38.539Z,5.83
2017-11-28T01:53:39.153Z,5.83
2017-11-28T01:54:39.761Z,5.87
2017-11-28T01:55:40.364Z,5.87
2017-11-28T01:56:40.964Z,5.88
2017-11-28T01:57:41.568Z,5.91
2017-11-28T01:58:42.187Z,5.86
2017-11-28T01:59:42.781Z,5.84
2017-11-28T02:00:43.380Z,5.91
2017-11-28T02:01:43.982Z,5.90
2017-11-28T02:02:44.583Z,5.93
2017-11-28T02:03:45.179Z,5.87
2017-11-28T02:04:45.780Z,5.94
2017-11-28T02:05:46.393Z,5.94
2017-11-28T02:06:47.000Z,5.91
2017-11-28T02:07:47.604Z,5.96
2017-11-28T02:08:48.216Z,5.88
2017-11-28T02:09:48.817Z,5.90
2017-11-28T02:10:49.422Z,5.90
2017-11-28T02:11:50.012Z,5.90
2017-11-28T02:12:50.620Z,5.87
2017-11-28T02:13:51.223Z,5.97
2017-11-28T02:14:51.826Z,5.91
2017-11-28T02:15:52.436Z,5.91
2017-11-28T02:16:53.054Z,5.91
2017-11-28T02:17:53.655Z,5.88
2017-11-28T02:18:54.247Z,5.91
2017-11-28T02:19:54.849Z,5.88
2017-11-28T02:20:55.463Z,5.94
2017-11-28T02:21:56.067Z,5.88
2017-11-28T02:22:56.664Z,6.04
2017-11-28T02:23:57.262Z,5.96
2017-11-28T02:24:57.856Z,5.94
2017-11-28T02:25:58.450Z,5.93
2017-11-28T02:26:59.055Z,5.90
2017-11-28T02:27:59.682Z,5.91
2017-11-28T02:29:00.278Z,5.96
2017-11-28T02:30:00.869Z,5.93
2017-11-28T02:31:01.467Z,5.91
2017-11-28T02:32:02.067Z,5.96
2017-11-28T02:33:02.658Z,5.88
2017-11-28T02:34:03.262Z,6.05
2017-11-28T02:35:03.867Z,5.97
2017-11-28T02:36:04.455Z,5.99
2017-11-28T02:37:05.046Z,5.93
2017-11-28T02:38:05.640Z,5.97
2017-11-28T02:39:06.232Z,5.94
2017-11-28T02:40:06.828Z,6.02
2017-11-28T02:41:07.439Z,5.96
2017-11-28T02:42:08.033Z,6.05
2017-11-28T02:43:08.628Z,5.93
2017-11-28T02:44:09.219Z,5.94
2017-11-28T02:45:09.832Z,5.93
2017-11-28T02:46:10.410Z,6.02
2017-11-28T02:47:11.007Z,5.96
2017-11-28T02:48:11.604Z,5.97
2017-11-28T02:49:12.212Z,5.94
2017-11-28T02:50:12.822Z,5.96
2017-11-28T02:51:13.420Z,5.99
2017-11-28T02:52:13.999Z,6.02
2017-11-28T02:53:14.597Z,6.05
2017-11-28T02:54:15.194Z,6.08
2017-11-28T02:55:15.809Z,5.99
2017-11-28T02:56:16.417Z,5.97
2017-11-28T02:57:17.027Z,5.97
2017-11-28T02:58:17.620Z,5.99
2017-11-28T02:59:18.209Z,6.02
2017-11-28T03:00:18.815Z,6.04
2017-11-28T03:01:19.426Z,5.94
2017-11-28T03:02:20.032Z,6.04
2017-11-28T03:03:20.628Z,6.11
2017-11-28T03:04:21.237Z,6.13
2017-11-28T03:05:21.845Z,6.02
2017-11-28T03:06:22.437Z,6.12
2017-11-28T03:07:23.030Z,6.12
2017-11-28T03:08:23.645Z,6.08
2017-11-28T03:09:24.246Z,6.02
2017-11-28T03:10:24.853Z,6.04
2017-11-28T03:11:25.449Z,6.02
2017-11-28T03:12:26.044Z,6.08
2017-11-28T03:13:26.638Z,6.06
2017-11-28T03:14:27.242Z,6.09
2017-11-28T03:15:27.842Z,6.02
2017-11-28T03:16:28.455Z,5.99
2017-11-28T03:17:29.044Z,6.09
2017-11-28T03:18:29.641Z,6.02
2017-11-28T03:19:30.246Z,5.97
2017-11-28T03:20:30.859Z,5.97
2017-11-28T03:21:31.481Z,6.12
2017-11-28T03:22:32.074Z,6.11
2017-11-28T03:23:32.666Z,6.04
2017-11-28T03:24:33.266Z,6.08
2017-11-28T03:25:33.869Z,6.12
2017-11-28T03:26:34.483Z,6.13
2017-11-28T03:27:35.090Z,6.08
2017-11-28T03:28:35.683Z,6.05
2017-11-28T03:29:36.286Z,6.05
2017-11-28T03:30:36.890Z,6.12
2017-11-28T03:31:37.512Z,6.05
2017-11-28T03:32:38.086Z,6.12
2017-11-28T03:33:38.680Z,6.13
2017-11-28T03:34:39.283Z,6.08
2017-11-28T03:35:39.894Z,6.13
2017-11-28T03:36:40.499Z,6.12
2017-11-28T03:37:41.109Z,5.99
2017-11-28T03:38:41.717Z,6.11
2017-11-28T03:39:42.313Z,6.08
2017-11-28T03:40:42.918Z,6.12
2017-11-28T03:41:43.519Z,6.12
2017-11-28T03:42:44.125Z,6.11
2017-11-28T03:43:44.724Z,6.04
2017-11-28T03:44:45.330Z,6.11
2017-11-28T03:45:45.932Z,6.05
2017-11-28T03:46:46.524Z,6.13
2017-11-28T03:47:47.117Z,6.13
2017-11-28T03:48:47.718Z,6.06
2017-11-28T03:49:48.314Z,6.11
2017-11-28T03:50:48.903Z,6.15
2017-11-28T03:51:49.501Z,6.16
2017-11-28T03:52:50.100Z,6.19
2017-11-28T03:53:50.705Z,6.16
2017-11-28T03:54:51.312Z,6.12
2017-11-28T03:55:51.912Z,6.12
2017-11-28T03:56:52.518Z,6.11
2017-11-28T03:57:53.135Z,6.12
2017-11-28T03:58:53.737Z,6.12
2017-11-28T03:59:54.340Z,6.19
2017-11-28T04:00:54.954Z,6.13
2017-11-28T04:01:55.560Z,6.16
2017-11-28T04:02:56.164Z,6.22
2017-11-28T04:03:56.762Z,6.15
2017-11-28T04:04:57.363Z,6.11
2017-11-28T04:05:57.961Z,6.13
2017-11-28T04:06:58.552Z,6.08
2017-11-28T04:07:59.150Z,6.24
2017-11-28T04:08:59.746Z,6.15
2017-11-28T04:10:00.343Z,6.20
2017-11-28T04:11:00.954Z,6.19
2017-11-28T04:12:01.546Z,6.22
2017-11-28T04:13:02.157Z,6.20
2017-11-28T04:14:02.753Z,6.12
2017-11-28T04:15:03.368Z,6.19
2017-11-28T04:16:03.961Z,6.13
2017-11-28T04:17:04.562Z,6.08
2017-11-28T04:18:05.173Z,6.16
2017-11-28T04:19:05.774Z,6.08
2017-11-28T04:20:06.378Z,6.20
2017-11-28T04:21:06.970Z,6.13
2017-11-28T04:22:07.556Z,6.19
2017-11-28T04:23:08.155Z,6.16
2017-11-28T04:24:08.758Z,6.19
2017-11-28T04:25:09.352Z,6.16
2017-11-28T04:26:09.963Z,6.16
2017-11-28T04:27:10.560Z,6.06
2017-11-28T04:28:11.157Z,6.13
2017-11-28T04:29:11.759Z,6.12
2017-11-28T04:30:12.348Z,6.11
2017-11-28T04:31:12.937Z,6.12
2017-11-28T04:32:13.534Z,6.19
2017-11-28T04:33:14.123Z,6.13
2017-11-28T04:34:14.715Z,6.12
2017-11-28T04:35:15.312Z,6.15
2017-11-28T04:36:15.920Z,6.16
2017-11-28T04:37:16.523Z,6.08
2017-11-28T04:38:17.124Z,6.11
2017-11-28T04:39:17.720Z,6.09
2017-11-28T04:40:18.331Z,6.11
2017-11-28T04:41:18.931Z,6.13
2017-11-28T04:42:19.518Z,6.08
2017-11-28T04:43:20.128Z,6.09
2017-11-28T04:44:20.726Z,6.02
2017-11-28T04:45:21.319Z,6.02
2017-11-28T04:46:21.926Z,6.05
2017-11-28T04:47:22.521Z,6.08
2017-11-28T04:48:23.121Z,6.08
2017-11-28T04:49:23.739Z,5.94
2017-11-28T04:50:24.314Z,5.94
2017-11-28T04:51:24.925Z,5.94
2017-11-28T04:52:25.523Z,5.88
2017-11-28T04:53:26.128Z,5.90
2017-11-28T04:54:26.741Z,5.93
2017-11-28T04:55:27.344Z,5.91
2017-11-28T04:56:27.939Z,5.93
2017-11-28T04:57:28.542Z,5.93
2017-11-28T04:58:29.153Z,5.90
2017-11-28T04:59:29.744Z,5.90
2017-11-28T05:00:30.353Z,5.83
2017-11-28T05:01:30.947Z,5.81
2017-11-28T05:02:31.575Z,5.88
2017-11-28T05:03:32.167Z,5.88
2017-11-28T05:04:32.763Z,5.86
2017-11-28T05:05:33.375Z,5.81
2017-11-28T05:06:33.962Z,5.87
2017-11-28T05:07:34.568Z,5.84
2017-11-28T05:08:35.175Z,5.83
2017-11-28T05:09:35.764Z,5.84
2017-11-28T05:10:36.370Z,5.76
2017-11-28T05:11:36.956Z,5.72
2017-11-28T05:12:37.547Z,5.69
2017-11-28T05:13:38.158Z,5.70
2017-11-28T05:14:38.760Z,5.66
2017-11-28T05:15:39.363Z,5.68
2017-11-28T05:16:39.959Z,5.60
2017-11-28T05:17:40.571Z,5.60
2017-11-28T05:18:41.153Z,5.61
2017-11-28T05:19:41.781Z,5.57
2017-11-28T05:20:42.360Z,5.48
2017-11-28T05:21:42.967Z,5.52
2017-11-28T05:22:43.555Z,5.45
2017-11-28T05:23:44.157Z,5.45
2017-11-28T05:24:44.763Z,5.47
2017-11-28T05:25:45.367Z,5.45
2017-11-28T05:26:45.971Z,5.42
2017-11-28T05:27:46.568Z,5.45
2017-11-28T05:28:47.183Z,5.30
2017-11-28T05:29:47.791Z,5.42
2017-11-28T05:30:48.403Z,5.34
2017-11-28T05:31:48.992Z,5.44
2017-11-28T05:32:49.585Z,5.37
2017-11-28T05:33:50.175Z,5.32
2017-11-28T05:34:50.769Z,5.33
2017-11-28T05:35:51.361Z,5.30
2017-11-28T05:36:51.965Z,5.26
2017-11-28T05:37:52.577Z,5.18
2017-11-28T05:38:53.187Z,5.21
2017-11-28T05:39:53.776Z,5.22
2017-11-28T05:40:54.375Z,5.27
2017-11-28T05:41:54.970Z,5.16
2017-11-28T05:42:55.568Z,5.09
2017-11-28T05:43:56.156Z,5.12
2017-11-28T05:44:56.744Z,5.12
2017-11-28T05:45:57.340Z,5.08
2017-11-28T05:46:57.936Z,5.14
2017-11-28T05:47:58.550Z,5.00
2017-11-28T05:48:59.150Z,5.04
2017-11-28T05:49:59.814Z,5.01
2017-11-28T05:51:00.481Z,4.90
2017-11-28T05:52:01.067Z,4.85
2017-11-28T05:53:01.707Z,4.82
2017-11-28T05:54:02.298Z,4.77
2017-11-28T05:55:02.905Z,4.82
2017-11-28T05:56:03.491Z,4.78
2017-11-28T05:57:04.088Z,4.74
2017-11-28T05:58:04.692Z,4.78
2017-11-28T05:59:05.287Z,4.74
2017-11-28T06:00:05.901Z,4.82
2017-11-28T06:01:06.502Z,4.75
2017-11-28T06:02:07.100Z,4.56
2017-11-28T06:03:07.687Z,4.72
2017-11-28T06:04:08.283Z,4.70
2017-11-28T06:05:08.874Z,4.75
2017-11-28T06:06:09.462Z,4.74
2017-11-28T06:07:10.062Z,4.71
2017-11-28T06:08:10.648Z,4.60
2017-11-28T06:09:11.259Z,4.63
2017-11-28T06:10:11.882Z,4.57
2017-11-28T06:11:12.485Z,4.66
2017-11-28T06:12:13.081Z,4.64
2017-11-28T06:13:13.693Z,4.59
2017-11-28T06:14:14.290Z,4.59
2017-11-28T06:15:14.901Z,4.56
2017-11-28T06:16:15.491Z,4.53
2017-11-28T06:17:16.095Z,4.48
2017-11-28T06:18:16.705Z,4.53
2017-11-28T06:19:17.309Z,4.48
2017-11-28T06:20:17.913Z,4.52
2017-11-28T06:21:18.519Z,4.48
2017-11-28T06:22:19.124Z,4.42
2017-11-28T06:23:19.719Z,4.48
2017-11-28T06:24:20.322Z,4.46
2017-11-28T06:25:20.941Z,4.52
2017-11-28T06:26:21.550Z,4.52
2017-11-28T06:27:22.159Z,4.48
2017-11-28T06:28:22.770Z,4.45
2017-11-28T06:29:23.373Z,4.50
2017-11-28T06:30:23.967Z,4.46
2017-11-28T06:31:24.555Z,4.48
2017-11-28T06:32:25.153Z,4.53
2017-11-28T06:33:25.758Z,4.45
2017-11-28T06:34:26.341Z,4.45
2017-11-28T06:35:26.934Z,4.54
2017-11-28T06:36:27.544Z,4.48
2017-11-28T06:37:28.133Z,4.44
2017-11-28T06:38:28.738Z,4.46
2017-11-28T06:39:29.342Z,4.42
2017-11-28T06:40:29.939Z,4.45
2017-11-28T06:41:30.542Z,4.50
2017-11-28T06:42:31.133Z,4.48
2017-11-28T06:43:31.730Z,4.42
2017-11-28T06:44:32.326Z,4.42
2017-11-28T06:45:32.918Z,4.45
2017-11-28T06:46:33.521Z,4.48
2017-11-28T06:47:34.132Z,4.45
2017-11-28T06:48:34.726Z,4.46
2017-11-28T06:49:35.342Z,4.44
2017-11-28T06:50:35.942Z,4.46
2017-11-28T06:51:36.537Z,4.52
2017-11-28T06:52:37.152Z,4.44
2017-11-28T06:53:37.751Z,4.46
2017-11-28T06:54:38.359Z,4.38
2017-11-28T06:55:38.970Z,4.52
2017-11-28T06:56:39.565Z,4.44
2017-11-28T06:57:40.172Z,4.44
2017-11-28T06:58:40.783Z,4.44
2017-11-28T06:59:41.387Z,4.45
2017-11-28T07:00:41.987Z,4.39
2017-11-28T07:01:42.590Z,4.39
2017-11-28T07:02:43.198Z,4.39
2017-11-28T07:03:43.807Z,4.34
2017-11-28T07:04:44.443Z,4.41
2017-11-28T07:05:45.020Z,4.28
2017-11-28T07:06:45.617Z,4.27
2017-11-28T07:07:46.230Z,4.20
2017-11-28T07:08:46.844Z,4.16
2017-11-28T07:09:47.455Z,4.13
2017-11-28T07:10:48.069Z,4.14
2017-11-28T07:11:48.668Z,4.13
2017-11-28T07:12:49.281Z,4.13
2017-11-28T07:13:49.874Z,4.10
2017-11-28T07:14:50.477Z,4.13
2017-11-28T07:15:51.087Z,4.05
2017-11-28T07:16:51.694Z,4.00
2017-11-28T07:17:52.294Z,4.02
2017-11-28T07:18:52.899Z,4.03
2017-11-28T07:19:53.505Z,3.99
2017-11-28T07:20:54.116Z,3.99
2017-11-28T07:21:54.718Z,4.02
2017-11-28T07:22:55.322Z,4.02
2017-11-28T07:23:55.928Z,3.99
2017-11-28T07:24:56.534Z,4.00
2017-11-28T07:25:57.145Z,4.02
2017-11-28T07:26:57.754Z,4.06
2017-11-28T07:27:58.382Z,3.99
2017-11-28T07:28:59.005Z,3.93
2017-11-28T07:29:59.613Z,3.93
2017-11-28T07:31:00.263Z,3.88
2017-11-28T07:32:00.859Z,3.99
2017-11-28T07:33:01.466Z,4.00
2017-11-28T07:34:02.060Z,4.02
2017-11-28T07:35:02.654Z,4.02
2017-11-28T07:36:03.262Z,4.05
2017-11-28T07:37:03.874Z,4.14
2017-11-28T07:38:04.482Z,4.13
2017-11-28T07:39:05.092Z,4.20
2017-11-28T07:40:05.688Z,4.13
2017-11-28T07:41:06.288Z,4.17
2017-11-28T07:42:06.880Z,4.18
2017-11-28T07:43:07.492Z,4.27
2017-11-28T07:44:08.081Z,4.32
2017-11-28T07:45:08.680Z,4.34
2017-11-28T07:46:09.289Z,4.39
2017-11-28T07:47:09.888Z,4.45
2017-11-28T07:48:10.505Z,4.46
2017-11-28T07:49:11.121Z,4.45
2017-11-28T07:50:11.736Z,4.52
2017-11-28T07:51:12.334Z,4.59
2017-11-28T07:52:12.946Z,4.54
2017-11-28T07:53:13.557Z,4.53
2017-11-28T07:54:14.161Z,4.56
2017-11-28T07:55:14.775Z,4.57
2017-11-28T07:56:15.375Z,4.64
2017-11-28T07:57:15.981Z,4.71
2017-11-28T07:58:16.592Z,4.75
2017-11-28T07:59:17.190Z,4.83
2017-11-28T08:00:17.801Z,4.89
2017-11-28T08:01:18.408Z,4.97
2017-11-28T08:02:19.016Z,5.03
2017-11-28T08:03:19.609Z,5.11
2017-11-28T08:04:20.216Z,5.12
2017-11-28T08:05:20.822Z,5.18
2017-11-28T08:06:21.433Z,5.14
2017-11-28T08:07:22.052Z,5.03
2017-11-28T08:08:22.669Z,5.16
2017-11-28T08:09:23.277Z,5.14
2017-11-28T08:10:24.877Z,5.08
2017-11-28T08:11:25.478Z,5.03
2017-11-28T08:12:26.096Z,5.07
2017-11-28T08:13:26.689Z,5.03
2017-11-28T08:14:27.295Z,5.01
2017-11-28T08:15:27.899Z,5.04
2017-11-28T08:16:28.506Z,5.00
2017-11-28T08:17:29.110Z,5.00
2017-11-28T08:18:29.729Z,4.99
2017-11-28T08:19:30.324Z,4.99
2017-11-28T08:20:30.936Z,4.93
2017-11-28T08:21:31.543Z,5.03
2017-11-28T08:22:32.141Z,5.00
2017-11-28T08:23:32.741Z,5.04
2017-11-28T08:24:33.344Z,5.08
2017-11-28T08:25:33.939Z,5.08
2017-11-28T08:26:34.540Z,5.07
2017-11-28T08:27:35.158Z,5.08
2017-11-28T08:28:35.769Z,5.03
2017-11-28T08:29:36.369Z,5.09
2017-11-28T08:30:36.984Z,5.11
2017-11-28T08:31:37.585Z,5.09
2017-11-28T08:32:38.193Z,5.16
2017-11-28T08:33:38.802Z,5.14
2017-11-28T08:34:39.419Z,5.21
2017-11-28T08:35:40.037Z,5.19
2017-11-28T08:36:40.650Z,5.26
2017-11-28T08:37:41.268Z,5.30
2017-11-28T08:38:41.882Z,5.40
2017-11-28T08:39:42.480Z,5.36
2017-11-28T08:40:43.085Z,5.44
2017-11-28T08:41:43.698Z,5.54
2017-11-28T08:42:44.294Z,5.60
2017-11-28T08:43:44.895Z,5.68
2017-11-28T08:44:45.516Z,5.72
2017-11-28T08:45:46.130Z,5.84
2017-11-28T08:46:46.738Z,5.97
2017-11-28T08:47:47.345Z,6.11
2017-11-28T08:48:47.956Z,6.24
2017-11-28T08:49:48.573Z,6.50
2017-11-28T08:50:49.192Z,6.49
2017-11-28T08:51:49.815Z,6.60
2017-11-28T08:52:50.427Z,6.73
2017-11-28T08:53:51.044Z,7.00
2017-11-28T08:54:51.660Z,7.12
2017-11-28T08:55:52.275Z,7.22
2017-11-28T08:56:52.881Z,7.36
2017-11-28T08:57:53.482Z,7.40
2017-11-28T08:58:54.101Z,7.57
2017-11-28T08:59:54.705Z,7.60
2017-11-28T09:00:55.313Z,7.50
2017-11-28T09:01:56.918Z,7.66
2017-11-28T09:02:57.546Z,7.53
2017-11-28T09:03:58.153Z,7.63
2017-11-28T09:04:58.775Z,7.60
2017-11-28T09:05:59.371Z,7.60
2017-11-28T09:06:59.985Z,7.45
2017-11-28T09:08:00.589Z,7.36
2017-11-28T09:09:01.192Z,7.24
2017-11-28T09:10:01.812Z,7.22
2017-11-28T09:11:02.471Z,7.17
2017-11-28T09:12:03.061Z,7.17
2017-11-28T09:13:03.665Z,7.21
2017-11-28T09:14:04.290Z,7.37
2017-11-28T09:15:04.897Z,7.50
2017-11-28T09:16:05.523Z,7.70
2017-11-28T09:17:06.121Z,7.72
2017-11-28T09:18:06.718Z,7.84
2017-11-28T09:19:07.340Z,7.83
2017-11-28T09:20:07.970Z,7.94
2017-11-28T09:21:08.585Z,7.81
2017-11-28T09:22:09.200Z,7.84
2017-11-28T09:23:09.814Z,7.81
2017-11-28T09:24:10.423Z,7.88
2017-11-28T09:25:11.028Z,7.92
2017-11-28T09:26:11.648Z,7.98
2017-11-28T09:27:12.251Z,8.15
2017-11-28T09:28:12.853Z,8.50
2017-11-28T09:29:13.462Z,8.70
2017-11-28T09:30:14.059Z,8.84
2017-11-28T09:31:14.671Z,8.98
2017-11-28T09:33:15.915Z,8.74
2017-11-28T09:34:16.536Z,8.63
2017-11-28T09:35:17.155Z,8.56
2017-11-28T09:36:17.771Z,8.50
2017-11-28T09:37:18.376Z,8.30
2017-11-28T09:38:19.012Z,8.30
2017-11-28T09:39:19.598Z,8.35
2017-11-28T09:40:20.217Z,8.33
2017-11-28T09:41:20.817Z,8.43
2017-11-28T09:42:21.431Z,8.58
2017-11-28T09:43:22.047Z,8.78
2017-11-28T09:44:22.680Z,8.93
2017-11-28T09:45:23.291Z,9.12
2017-11-28T09:46:23.917Z,9.11
2017-11-28T09:47:24.555Z,9.01
2017-11-28T09:48:25.165Z,9.00
2017-11-28T09:49:25.778Z,9.04
2017-11-28T09:50:26.394Z,9.04
2017-11-28T09:51:27.002Z,9.00
2017-11-28T09:52:27.615Z,8.95
2017-11-28T09:53:28.226Z,8.67
2017-11-28T09:54:28.840Z,8.70
2017-11-28T09:55:29.455Z,8.74
2017-11-28T09:56:30.056Z,8.64
2017-11-28T09:57:30.684Z,8.70
2017-11-28T09:58:31.289Z,8.81
2017-11-28T09:59:31.912Z,8.81
2017-11-28T10:00:32.532Z,8.93
2017-11-28T10:01:33.135Z,9.01
2017-11-28T10:02:33.757Z,9.32
2017-11-28T10:03:34.390Z,9.53
2017-11-28T10:04:35.006Z,9.62
2017-11-28T10:05:35.628Z,9.61
2017-11-28T10:06:36.253Z,9.35
2017-11-28T10:07:36.865Z,9.35
2017-11-28T10:08:37.464Z,9.32
2017-11-28T10:09:38.071Z,9.28
2017-11-28T10:10:38.684Z,9.50
2017-11-28T10:11:39.292Z,9.62
2017-11-28T10:12:39.907Z,9.80
2017-11-28T10:13:40.507Z,9.95
2017-11-28T10:14:41.152Z,9.83
2017-11-28T10:15:41.734Z,9.90
2017-11-28T10:16:42.352Z,9.79
2017-11-28T10:17:42.966Z,9.94
2017-11-28T10:18:43.572Z,9.96
2017-11-28T10:19:44.200Z,10.17
2017-11-28T10:20:44.818Z,10.23
2017-11-28T10:21:45.445Z,10.57
2017-11-28T10:22:46.069Z,10.56
2017-11-28T10:23:46.696Z,10.66
2017-11-28T10:24:47.303Z,10.91
2017-11-28T10:25:47.998Z,11.21
2017-11-28T10:26:48.549Z,11.44
2017-11-28T10:27:49.163Z,11.42
2017-11-28T10:28:49.782Z,11.59
2017-11-28T10:29:50.395Z,11.84
2017-11-28T10:30:51.006Z,12.14
2017-11-28T10:31:51.620Z,12.32
2017-11-28T10:32:52.271Z,12.31
2017-11-28T10:33:52.844Z,12.22
2017-11-28T10:34:53.453Z,11.93
2017-11-28T10:35:54.056Z,11.59
2017-11-28T10:36:54.669Z,11.37
2017-11-28T10:37:55.280Z,11.32
2017-11-28T10:38:55.895Z,11.36
2017-11-28T10:39:56.508Z,11.48
2017-11-28T10:40:57.115Z,11.66
2017-11-28T10:41:57.722Z,11.88
2017-11-28T10:42:58.348Z,12.01
2017-11-28T10:43:58.964Z,11.90
2017-11-28T10:44:59.588Z,11.59
2017-11-28T10:46:00.206Z,11.45
2017-11-28T10:47:00.817Z,11.39
2017-11-28T10:48:01.436Z,11.36
2017-11-28T10:49:02.040Z,11.36
2017-11-28T10:50:02.681Z,11.29
2017-11-28T10:51:03.290Z,11.42
2017-11-28T10:52:03.900Z,11.59
2017-11-28T10:53:04.510Z,11.45
2017-11-28T10:54:05.154Z,11.63
2017-11-28T10:55:05.767Z,11.81
2017-11-28T10:56:06.396Z,11.90
2017-11-28T10:57:06.995Z,11.77
2017-11-28T10:58:07.616Z,11.88
2017-11-28T10:59:08.326Z,12.21
2017-11-28T11:00:08.940Z,12.52
2017-11-28T11:01:09.564Z,12.69
2017-11-28T11:02:10.177Z,13.07
2017-11-28T11:03:10.817Z,13.04
2017-11-28T11:04:11.653Z,12.83
2017-11-28T11:05:12.279Z,12.40
2017-11-28T11:06:12.907Z,12.04
2017-11-28T11:07:13.531Z,11.48
2017-11-28T11:08:14.341Z,11.33
2017-11-28T11:09:14.965Z,11.01
2017-11-28T11:10:15.607Z,10.87
2017-11-28T11:11:16.242Z,10.63
2017-11-28T11:12:16.872Z,10.51
2017-11-28T11:13:17.489Z,10.32
2017-11-28T11:14:18.102Z,10.35
2017-11-28T11:15:18.741Z,10.39
2017-11-28T11:16:19.347Z,10.41
2017-11-28T11:17:19.982Z,10.31
2017-11-28T11:18:20.610Z,10.20
2017-11-28T11:19:21.218Z,10.20
2017-11-28T11:20:21.855Z,10.16
2017-11-28T11:21:22.484Z,10.34
2017-11-28T11:22:23.090Z,10.61
2017-11-28T11:23:23.721Z,10.56
2017-11-28T11:24:24.384Z,10.61
2017-11-28T11:25:24.993Z,10.79
2017-11-28T11:26:25.610Z,10.94
2017-11-28T11:27:26.249Z,10.87
2017-11-28T11:28:26.882Z,10.83
2017-11-28T11:29:27.489Z,10.82
2017-11-28T11:30:28.125Z,10.93
2017-11-28T11:31:28.760Z,11.07
2017-11-28T11:32:29.385Z,10.96
2017-11-28T11:33:30.006Z,10.83
2017-11-28T11:34:30.652Z,10.94
2017-11-28T11:35:31.259Z,10.72
2017-11-28T11:36:31.860Z,10.61
2017-11-28T11:37:32.500Z,10.79
2017-11-28T11:38:33.112Z,10.93
2017-11-28T11:39:33.737Z,10.71
2017-11-28T11:40:34.344Z,10.49
2017-11-28T11:41:34.953Z,10.20
2017-11-28T11:42:35.607Z,10.17
2017-11-28T11:43:36.218Z,10.17
2017-11-28T11:44:36.850Z,10.16
2017-11-28T11:45:37.484Z,10.32
2017-11-28T11:46:38.101Z,10.16
2017-11-28T11:47:38.709Z,10.01
2017-11-28T11:48:39.335Z,9.98
2017-11-28T11:49:39.967Z,9.90
2017-11-28T11:50:40.578Z,9.63
2017-11-28T11:51:41.207Z,9.56
2017-11-28T11:52:41.830Z,9.48
2017-11-28T11:53:42.454Z,9.38
2017-11-28T11:54:43.158Z,9.30
2017-11-28T11:55:43.740Z,9.26
2017-11-28T11:56:44.372Z,9.38
2017-11-28T11:57:45.004Z,9.38
2017-11-28T11:58:45.607Z,9.36
2017-11-28T11:59:46.234Z,9.30
2017-11-28T12:00:46.827Z,9.20
2017-11-28T12:01:47.438Z,8.95
2017-11-28T12:02:48.057Z,8.96
2017-11-28T12:03:48.665Z,8.86
2017-11-28T12:04:49.290Z,8.78
2017-11-28T12:05:49.900Z,8.74
2017-11-28T12:06:50.514Z,8.76
2017-11-28T12:07:51.131Z,8.66
2017-11-28T12:08:51.761Z,8.55
2017-11-28T12:09:52.384Z,8.56
2017-11-28T12:10:53.010Z,8.56
2017-11-28T12:11:53.656Z,8.50
2017-11-28T12:12:55.245Z,8.35
2017-11-28T12:13:55.870Z,8.31
2017-11-28T12:14:56.475Z,8.23
2017-11-28T12:15:57.087Z,8.15
2017-11-28T12:16:57.698Z,8.22
2017-11-28T12:17:58.326Z,8.13
2017-11-28T12:18:58.942Z,8.07
2017-11-28T12:19:59.546Z,8.01
2017-11-28T12:21:00.163Z,8.02
2017-11-28T12:22:00.787Z,7.95
2017-11-28T12:23:01.390Z,7.80
2017-11-28T12:24:02.003Z,7.81
2017-11-28T12:25:02.593Z,7.79
2017-11-28T12:26:03.213Z,7.76
2017-11-28T12:27:03.818Z,7.66
2017-11-28T12:28:04.432Z,7.64
2017-11-28T12:29:05.042Z,7.54
2017-11-28T12:30:05.638Z,7.53
2017-11-28T12:31:06.247Z,7.51
2017-11-28T12:32:06.851Z,7.42
2017-11-28T12:33:07.459Z,7.47
2017-11-28T12:34:08.075Z,7.47
2017-11-28T12:35:08.680Z,7.47
2017-11-28T12:36:09.377Z,7.50
2017-11-28T12:37:10.029Z,7.35
2017-11-28T12:38:10.636Z,7.37
2017-11-28T12:39:11.242Z,7.40
2017-11-28T12:40:11.846Z,7.39
2017-11-28T12:41:12.462Z,7.46
2017-11-28T12:42:13.155Z,7.37
2017-11-28T12:43:13.959Z,7.39
2017-11-28T12:44:14.572Z,7.28
2017-11-28T12:45:15.188Z,7.28
2017-11-28T12:46:15.803Z,7.27
2017-11-28T12:47:16.405Z,7.25
2017-11-28T12:48:17.005Z,7.32
2017-11-28T12:49:17.614Z,7.37
2017-11-28T12:50:18.226Z,7.40
2017-11-28T12:51:18.844Z,7.47
2017-11-28T12:52:19.456Z,7.53
2017-11-28T12:53:20.068Z,7.58
2017-11-28T12:54:20.682Z,7.55
2017-11-28T12:55:21.317Z,7.58
2017-11-28T12:56:21.953Z,7.54
2017-11-28T12:57:22.757Z,7.60
2017-11-28T12:58:23.382Z,7.58
2017-11-28T12:59:24.003Z,7.73
2017-11-28T13:00:24.648Z,7.55
2017-11-28T13:01:25.314Z,7.57
2017-11-28T13:02:25.927Z,7.55
2017-11-28T13:03:26.547Z,7.47
2017-11-28T13:04:27.202Z,7.47
2017-11-28T13:05:27.819Z,7.45
2017-11-28T13:06:28.588Z,7.47
2017-11-28T13:07:29.399Z,7.45
2017-11-28T13:08:30.017Z,7.50
2017-11-28T13:09:30.649Z,7.43
2017-11-28T13:10:31.265Z,7.47
2017-11-28T13:11:31.897Z,7.46
2017-11-28T13:12:32.527Z,7.51
2017-11-28T13:13:33.131Z,7.50
2017-11-28T13:14:33.761Z,7.45
2017-11-28T13:15:34.389Z,7.47
2017-11-28T13:16:35.018Z,7.45
2017-11-28T13:17:35.877Z,7.50
2017-11-28T13:18:36.494Z,7.61
2017-11-28T13:19:37.109Z,7.74
2017-11-28T13:20:37.722Z,7.72
2017-11-28T13:21:38.347Z,7.79
2017-11-28T13:22:38.976Z,7.88
2017-11-28T13:23:39.588Z,7.91
2017-11-28T13:24:40.255Z,8.10